Time;durP1;ratioP1;P1;durP2;ratioP2;P2;SDS_P1;SDS_P2;PMS_P1;PMS_P2;Temp;Humidity;BMP_temperature;BMP_pressure;BME280_temperature;BME280_humidity;BME280_pressure;Samples;Min_cycle;Max_cycle;Signal;HPM_P1;HPM_P2
2023/03/22 00:00:35;;;;;;;0.10;0.10;;;8.00;99.90;;;;;;5016805;28;20901;-78
2023/03/22 00:03:00;;;;;;;0.10;0.10;;;8.00;99.90;;;;;;5032385;28;20897;-78
2023/03/22 00:05:26;;;;;;;0.10;0.10;;;8.10;99.90;;;;;;5034280;28;20187;-78
2023/03/22 00:07:56;;;;;;;0.10;0.10;;;8.20;99.90;;;;;;5035818;28;20201;-78
2023/03/22 00:10:27;;;;;;;0.10;0.10;;;8.40;99.90;;;;;;5034712;28;20213;-78
2023/03/22 00:12:53;;;;;;;0.10;0.10;;;8.50;99.90;;;;;;5037145;28;20642;-78
2023/03/22 00:15:18;;;;;;;0.10;0.10;;;8.70;99.90;;;;;;5015978;28;20219;-78
2023/03/22 00:17:44;;;;;;;0.10;0.10;;;8.80;99.90;;;;;;5016668;28;20289;-78
2023/03/22 00:20:10;;;;;;;0.10;0.10;;;8.80;99.90;;;;;;5015794;28;20852;-78
2023/03/22 00:22:37;;;;;;;0.10;0.10;;;8.90;99.90;;;;;;5035251;28;20175;-78
2023/03/22 00:25:04;;;;;;;0.10;0.10;;;8.80;99.90;;;;;;5017685;28;20189;-78
2023/03/22 00:27:29;;;;;;;0.10;0.10;;;8.90;99.90;;;;;;5015741;28;20696;-78
2023/03/22 00:29:55;;;;;;;0.10;0.10;;;8.90;99.90;;;;;;5016062;28;20210;-78
2023/03/22 00:32:21;;;;;;;0.10;0.10;;;8.80;99.90;;;;;;5016162;28;20181;-78
2023/03/22 00:34:46;;;;;;;0.10;0.10;;;8.90;99.90;;;;;;5017874;28;20272;-78
2023/03/22 00:37:12;;;;;;;0.10;0.10;;;8.80;99.90;;;;;;5032447;28;20234;-78
2023/03/22 00:39:37;;;;;;;0.10;0.10;;;8.60;99.90;;;;;;5035180;28;20194;-78
2023/03/22 00:42:04;;;;;;;0.10;0.10;;;8.50;99.90;;;;;;5014805;28;20194;-78
2023/03/22 00:44:30;;;;;;;0.10;0.10;;;8.60;99.90;;;;;;5016671;28;20196;-78
2023/03/22 00:46:56;;;;;;;0.10;0.10;;;8.70;99.90;;;;;;5015934;28;20190;-78
2023/03/22 00:49:21;;;;;;;0.10;0.10;;;8.70;99.90;;;;;;5017497;28;20272;-78
2023/03/22 00:51:47;;;;;;;0.10;0.10;;;8.80;99.90;;;;;;5034722;28;20186;-78
2023/03/22 00:54:12;;;;;;;0.10;0.10;;;8.70;99.90;;;;;;5016607;28;20225;-78
2023/03/22 00:56:38;;;;;;;0.10;0.10;;;8.70;99.90;;;;;;5034599;28;21058;-78
2023/03/22 00:59:04;;;;;;;0.10;0.10;;;8.60;99.90;;;;;;5033358;28;20217;-78
2023/03/22 01:01:29;;;;;;;0.10;0.10;;;8.60;99.90;;;;;;5033171;28;20193;-79
2023/03/22 01:03:55;;;;;;;0.10;0.10;;;8.40;99.90;;;;;;5015647;28;20617;-78
2023/03/22 01:06:21;;;;;;;0.10;0.10;;;8.40;99.90;;;;;;5015445;28;20182;-78
2023/03/22 01:08:49;;;;;;;0.10;0.10;;;8.40;99.90;;;;;;5032696;28;20201;-78
2023/03/22 01:11:15;;;;;;;0.10;0.10;;;8.40;99.90;;;;;;5015011;28;20248;-78
2023/03/22 01:13:41;;;;;;;0.10;0.10;;;8.20;99.90;;;;;;5014043;28;20182;-78
2023/03/22 01:16:08;;;;;;;0.10;0.10;;;8.20;99.90;;;;;;5015264;28;20601;-78
2023/03/22 01:18:34;;;;;;;0.10;0.10;;;8.00;99.90;;;;;;5031734;28;20289;-78
2023/03/22 01:20:59;;;;;;;0.10;0.10;;;7.90;99.90;;;;;;5031760;28;20187;-78
2023/03/22 01:23:25;;;;;;;0.10;0.10;;;8.00;99.90;;;;;;5031646;28;20204;-78
2023/03/22 01:25:51;;;;;;;0.10;0.10;;;8.20;99.90;;;;;;5032736;28;20191;-78
2023/03/22 01:28:16;;;;;;;0.10;0.10;;;8.10;99.90;;;;;;5013850;28;20707;-78
2023/03/22 01:30:42;;;;;;;0.10;0.10;;;8.20;99.90;;;;;;5033598;28;20193;-78
2023/03/22 01:33:08;;;;;;;0.10;0.10;;;8.40;99.90;;;;;;5035337;28;20185;-78
2023/03/22 01:35:35;;;;;;;0.10;0.10;;;8.50;99.90;;;;;;5032071;28;20186;-78
2023/03/22 01:38:00;;;;;;;0.10;0.10;;;8.60;99.90;;;;;;5013767;28;20213;-78
2023/03/22 01:40:26;;;;;;;0.10;0.10;;;8.60;99.90;;;;;;5032781;28;20199;-78
2023/03/22 01:42:53;;;;;;;0.10;0.10;;;8.50;99.90;;;;;;5018203;28;20219;-78
2023/03/22 01:45:21;;;;;;;0.10;0.10;;;8.50;99.90;;;;;;5014696;28;20177;-78
2023/03/22 01:47:53;;;;;;;0.10;0.10;;;8.40;99.90;;;;;;5016645;28;20698;-78
2023/03/22 01:50:20;;;;;;;0.10;0.10;;;8.40;99.90;;;;;;5016057;28;20197;-78
2023/03/22 01:52:47;;;;;;;0.10;0.10;;;8.30;99.90;;;;;;5032590;28;20213;-78
2023/03/22 01:55:13;;;;;;;0.10;0.10;;;8.30;99.90;;;;;;5035354;28;20184;-78
2023/03/22 01:57:40;;;;;;;0.10;0.10;;;8.40;99.90;;;;;;5014565;28;20223;-78
2023/03/22 02:00:09;;;;;;;0.10;0.10;;;8.30;99.90;;;;;;5032603;28;20696;-78
2023/03/22 02:02:35;;;;;;;0.10;0.10;;;8.30;99.90;;;;;;5031067;28;20197;-78
2023/03/22 02:05:03;;;;;;;0.10;0.10;;;8.30;99.90;;;;;;5008635;28;20186;-78
2023/03/22 02:07:30;;;;;;;0.10;0.10;;;8.30;99.90;;;;;;5031596;28;20612;-78
2023/03/22 02:09:57;;;;;;;0.10;0.10;;;8.30;99.90;;;;;;5033331;28;20207;-78
2023/03/22 02:12:40;;;;;;;0.10;0.10;;;8.30;99.90;;;;;;5013001;28;21986;-78
2023/03/22 02:15:18;;;;;;;0.10;0.10;;;8.20;99.90;;;;;;5033435;28;20186;-78
2023/03/22 02:18:05;;;;;;;0.10;0.10;;;8.20;99.90;;;;;;5023764;28;20224;-78
2023/03/22 02:20:55;;;;;;;0.10;0.10;;;8.20;99.90;;;;;;5033125;28;20178;-78
2023/03/22 02:23:35;;;;;;;0.10;0.10;;;8.20;99.90;;;;;;5031324;28;20174;-78
2023/03/22 02:26:23;;;;;;;0.10;0.10;;;8.10;99.90;;;;;;5030481;28;20602;-78
2023/03/22 02:29:32;;;;;;;0.10;0.10;;;8.10;99.90;;;;;;5013717;28;20288;-78
2023/03/22 02:32:20;;;;;;;0.10;0.10;;;8.10;99.90;;;;;;4973296;28;20186;-78
2023/03/22 02:35:23;;;;;;;0.10;0.10;;;8.00;99.90;;;;;;5007235;28;20556;-78
2023/03/22 02:38:17;;;;;;;0.10;0.10;;;8.00;99.90;;;;;;5013804;28;20218;-78
2023/03/22 02:41:16;;;;;;;0.10;0.10;;;7.90;99.90;;;;;;5031018;28;20179;-78
2023/03/22 02:44:03;;;;;;;0.10;0.10;;;8.00;99.90;;;;;;5024690;28;20196;-78
2023/03/22 02:46:42;;;;;;;0.10;0.10;;;8.00;99.90;;;;;;5043736;28;20177;-78
2023/03/22 02:49:29;;;;;;;0.10;0.10;;;8.00;99.90;;;;;;5044901;28;20217;-78
2023/03/22 02:52:32;;;;;;;0.10;0.10;;;8.00;99.90;;;;;;5015489;28;20216;-78
2023/03/22 02:55:12;;;;;;;0.10;0.10;;;7.90;99.90;;;;;;5009997;28;20190;-78
2023/03/22 02:57:51;;;;;;;0.10;0.10;;;7.90;99.90;;;;;;5012507;28;20212;-78
2023/03/22 03:00:18;;;;;;;0.10;0.10;;;7.80;99.90;;;;;;5015071;28;20188;-78
2023/03/22 03:02:55;;;;;;;0.10;0.10;;;7.60;99.90;;;;;;5032833;28;20249;-78
2023/03/22 03:05:23;;;;;;;0.10;0.10;;;7.50;99.90;;;;;;5013022;28;20271;-78
2023/03/22 03:07:57;;;;;;;0.10;0.10;;;7.60;99.90;;;;;;5014439;28;20219;-78
2023/03/22 03:10:23;;;;;;;0.10;0.10;;;7.60;99.90;;;;;;5032193;28;20196;-78
2023/03/22 03:12:48;;;;;;;0.10;0.10;;;7.60;99.90;;;;;;5013955;28;20543;-79
2023/03/22 03:15:17;;;;;;;0.10;0.10;;;7.60;99.90;;;;;;5015946;28;20235;-78
2023/03/22 03:18:33;;;;;;;0.10;0.10;;;7.70;99.90;;;;;;5031509;28;20611;-78
2023/03/22 03:21:17;;;;;;;0.10;0.10;;;7.60;99.90;;;;;;4972194;28;21002;-78
2023/03/22 03:23:55;;;;;;;0.10;0.10;;;7.60;99.90;;;;;;5032059;28;20182;-78
2023/03/22 03:26:45;;;;;;;0.10;0.10;;;7.60;99.90;;;;;;5014098;28;20633;-78
2023/03/22 03:29:24;;;;;;;0.10;0.10;;;7.60;99.90;;;;;;5032127;28;20254;-78
2023/03/22 03:32:03;;;;;;;0.00;0.00;;;7.60;99.90;;;;;;5015879;28;20559;-78
2023/03/22 03:34:37;;;;;;;0.10;0.10;;;7.60;99.90;;;;;;5021879;28;20658;-78
2023/03/22 03:37:07;;;;;;;0.10;0.10;;;7.60;99.90;;;;;;5012578;28;20207;-78
2023/03/22 03:39:37;;;;;;;0.10;0.10;;;7.60;99.90;;;;;;5032414;28;20215;-78
2023/03/22 03:42:05;;;;;;;0.10;0.10;;;7.70;99.90;;;;;;5032521;28;20311;-78
2023/03/22 03:44:34;;;;;;;0.10;0.10;;;7.70;99.90;;;;;;5014390;28;20712;-78
2023/03/22 03:47:01;;;;;;;0.10;0.10;;;7.70;99.90;;;;;;5014827;28;20783;-78
2023/03/22 03:49:26;;;;;;;0.10;0.10;;;7.90;99.90;;;;;;5036635;28;20228;-78
2023/03/22 03:51:54;;;;;;;0.10;0.10;;;7.90;99.90;;;;;;5018985;28;20735;-78
2023/03/22 03:54:21;;;;;;;0.10;0.10;;;8.00;99.90;;;;;;5018751;28;20348;-79
2023/03/22 03:56:46;;;;;;;0.10;0.10;;;8.00;99.90;;;;;;5034836;28;20200;-79
2023/03/22 03:59:14;;;;;;;0.10;0.10;;;8.00;99.90;;;;;;5018709;28;20921;-79
2023/03/22 04:01:48;;;;;;;0.10;0.10;;;7.60;99.90;;;;;;5035335;28;20205;-79
2023/03/22 04:04:24;;;;;;;0.10;0.10;;;7.70;99.90;;;;;;5016466;28;20558;-79
2023/03/22 04:06:57;;;;;;;0.10;0.10;;;7.60;99.90;;;;;;5033718;28;20186;-79
2023/03/22 04:09:31;;;;;;;0.10;0.10;;;7.40;99.90;;;;;;5017426;28;20200;-79
2023/03/22 04:11:57;;;;;;;0.10;0.10;;;7.40;99.90;;;;;;5016967;28;20190;-79
2023/03/22 04:14:24;;;;;;;10.40;8.53;;;7.40;99.90;;;;;;5036299;28;20189;-79
2023/03/22 04:16:49;;;;;;;0.10;0.10;;;7.00;99.90;;;;;;5016027;28;20198;-79
2023/03/22 04:19:15;;;;;;;0.10;0.10;;;6.80;99.90;;;;;;5017644;28;20221;-79
2023/03/22 04:21:41;;;;;;;0.10;0.10;;;6.60;99.90;;;;;;5017785;28;21048;-79
2023/03/22 04:24:07;;;;;;;0.00;0.00;;;6.60;99.90;;;;;;5035178;28;20183;-79
2023/03/22 04:26:32;;;;;;;0.10;0.10;;;6.50;99.90;;;;;;5015673;28;20182;-79
2023/03/22 04:28:58;;;;;;;0.10;0.10;;;6.40;99.90;;;;;;5036242;28;20211;-79
2023/03/22 04:31:24;;;;;;;0.10;0.10;;;6.40;99.90;;;;;;5017037;28;20303;-79
2023/03/22 04:33:53;;;;;;;0.10;0.10;;;6.30;99.90;;;;;;5034953;28;20335;-79
2023/03/22 04:36:20;;;;;;;0.10;0.10;;;6.30;99.90;;;;;;5015885;28;20228;-79
2023/03/22 04:38:46;;;;;;;0.10;0.10;;;6.30;99.90;;;;;;5016706;28;20209;-79
2023/03/22 04:41:11;;;;;;;0.10;0.10;;;6.30;99.90;;;;;;5015493;28;20656;-78
2023/03/22 04:43:38;;;;;;;0.10;0.10;;;6.20;99.90;;;;;;5034245;28;20189;-79
2023/03/22 04:46:11;;;;;;;0.10;0.10;;;6.20;99.90;;;;;;5015521;28;20207;-78
2023/03/22 04:48:40;;;;;;;0.10;0.10;;;6.20;99.90;;;;;;5015612;28;20211;-79
2023/03/22 04:51:07;;;;;;;0.10;0.10;;;6.20;99.90;;;;;;5016777;28;20186;-78
2023/03/22 04:53:37;;;;;;;0.10;0.10;;;6.20;99.90;;;;;;5032975;28;20216;-79
2023/03/22 04:56:08;;;;;;;0.10;0.10;;;6.20;99.90;;;;;;5017028;28;20198;-79
2023/03/22 04:58:38;;;;;;;0.10;0.10;;;6.20;99.90;;;;;;5015493;28;20220;-79
2023/03/22 05:01:04;;;;;;;0.10;0.10;;;6.20;99.90;;;;;;5015462;28;20222;-79
2023/03/22 05:03:29;;;;;;;0.10;0.10;;;6.30;99.90;;;;;;5015702;28;20236;-79
2023/03/22 05:05:57;;;;;;;0.10;0.10;;;6.40;99.90;;;;;;5032525;28;21305;-79
2023/03/22 05:08:24;;;;;;;0.10;0.10;;;6.50;99.90;;;;;;5015995;28;20300;-79
2023/03/22 05:10:54;;;;;;;0.10;0.10;;;6.50;99.90;;;;;;5032732;28;20193;-79
2023/03/22 05:13:21;;;;;;;0.10;0.10;;;6.50;99.90;;;;;;5032478;28;20189;-79
2023/03/22 05:15:48;;;;;;;0.10;0.10;;;6.60;99.90;;;;;;5016223;28;20193;-79
2023/03/22 05:18:15;;;;;;;0.10;0.10;;;6.50;99.90;;;;;;5032872;28;20337;-79
2023/03/22 05:20:42;;;;;;;0.10;0.10;;;6.60;99.90;;;;;;5016351;28;20189;-79
2023/03/22 05:23:08;;;;;;;0.10;0.10;;;6.60;99.90;;;;;;5016004;28;20194;-79
2023/03/22 05:25:34;;;;;;;0.10;0.10;;;6.60;99.90;;;;;;5015585;28;20197;-79
2023/03/22 05:28:00;;;;;;;0.10;0.10;;;6.80;99.90;;;;;;5031472;28;20227;-79
2023/03/22 05:30:30;;;;;;;0.10;0.10;;;6.90;99.90;;;;;;5015860;28;20211;-79
2023/03/22 05:33:02;;;;;;;0.10;0.10;;;7.00;99.90;;;;;;5031725;28;20260;-79
2023/03/22 05:35:32;;;;;;;0.10;0.10;;;7.00;99.90;;;;;;5014948;28;20234;-79
2023/03/22 05:37:57;;;;;;;0.10;0.10;;;7.00;99.90;;;;;;5029276;28;20241;-79
2023/03/22 05:40:26;;;;;;;0.10;0.10;;;7.00;99.90;;;;;;5019500;28;20222;-79
2023/03/22 05:42:53;;;;;;;0.10;0.10;;;7.00;99.90;;;;;;5034099;28;20186;-78
2023/03/22 05:45:19;;;;;;;0.10;0.10;;;7.00;99.90;;;;;;5034251;28;20198;-78
2023/03/22 05:47:46;;;;;;;0.10;0.10;;;7.00;99.90;;;;;;5033247;28;20645;-79
2023/03/22 05:50:15;;;;;;;0.10;0.10;;;6.90;99.90;;;;;;5019432;28;20202;-79
2023/03/22 05:52:41;;;;;;;0.10;0.10;;;6.90;99.90;;;;;;5017473;28;20284;-79
2023/03/22 05:55:08;;;;;;;0.10;0.10;;;7.00;99.90;;;;;;5037458;28;20185;-79
2023/03/22 05:57:34;;;;;;;0.10;0.10;;;7.00;99.90;;;;;;5034621;28;20274;-80
2023/03/22 06:00:00;;;;;;;0.10;0.10;;;7.10;99.90;;;;;;5019110;28;21011;-80
2023/03/22 06:02:26;;;;;;;0.07;0.07;;;7.10;99.90;;;;;;5020257;28;20196;-80
2023/03/22 06:04:52;;;;;;;0.10;0.10;;;7.10;99.90;;;;;;5027604;28;20682;-80
2023/03/22 06:07:19;;;;;;;0.10;0.10;;;7.10;99.90;;;;;;5017661;28;20223;-80
2023/03/22 06:09:45;;;;;;;0.10;0.10;;;7.20;99.90;;;;;;5018215;28;20190;-80
2023/03/22 06:12:11;;;;;;;0.10;0.10;;;7.20;99.90;;;;;;5014944;28;20582;-80
2023/03/22 06:14:36;;;;;;;0.10;0.10;;;7.30;99.90;;;;;;5032659;28;20197;-80
2023/03/22 06:17:02;;;;;;;0.10;0.10;;;7.20;99.90;;;;;;5034477;28;20262;-82
2023/03/22 06:19:28;;;;;;;0.10;0.10;;;7.20;99.90;;;;;;5036725;28;20198;-82
2023/03/22 06:21:54;;;;;;;0.10;0.10;;;7.20;99.90;;;;;;5037608;28;20227;-83
2023/03/22 06:24:20;;;;;;;0.10;0.10;;;7.20;99.90;;;;;;5015362;28;20675;-82
2023/03/22 06:26:46;;;;;;;0.10;0.10;;;7.30;99.90;;;;;;5037237;28;20200;-82
2023/03/22 06:29:12;;;;;;;0.10;0.10;;;7.50;99.90;;;;;;5030099;28;20231;-81
2023/03/22 06:31:37;;;;;;;0.10;0.10;;;7.60;99.90;;;;;;5017622;28;20289;-81
2023/03/22 06:34:04;;;;;;;0.10;0.10;;;7.50;99.90;;;;;;5017164;28;20197;-81
2023/03/22 06:36:29;;;;;;;0.10;0.10;;;7.50;99.90;;;;;;5037795;28;20661;-81
2023/03/22 06:38:56;;;;;;;0.10;0.10;;;7.50;99.90;;;;;;5033256;28;20215;-82
2023/03/22 06:41:21;;;;;;;0.10;0.10;;;7.40;99.90;;;;;;5018444;28;20196;-81
2023/03/22 06:43:47;;;;;;;0.10;0.10;;;7.40;99.90;;;;;;5036125;28;20560;-82
2023/03/22 06:46:13;;;;;;;0.10;0.10;;;7.40;99.90;;;;;;5019116;28;20177;-84
2023/03/22 06:48:39;;;;;;;0.10;0.10;;;7.70;99.90;;;;;;5013613;28;20229;-83
2023/03/22 06:51:04;;;;;;;0.10;0.10;;;7.90;99.90;;;;;;5015188;28;20192;-82
2023/03/22 06:53:30;;;;;;;0.10;0.10;;;8.00;99.90;;;;;;5032925;28;20556;-83
2023/03/22 06:55:56;;;;;;;0.10;0.10;;;8.10;99.90;;;;;;5031893;28;20188;-83
2023/03/22 06:58:21;;;;;;;0.10;0.10;;;8.20;99.90;;;;;;5016730;28;20302;-83
2023/03/22 07:00:47;;;;;;;0.10;0.10;;;8.40;99.90;;;;;;5032866;28;20183;-83
2023/03/22 07:03:12;;;;;;;0.00;0.00;;;8.50;99.90;;;;;;5015330;28;20803;-83
2023/03/22 07:05:38;;;;;;;0.10;0.10;;;8.50;99.90;;;;;;5014334;28;20189;-83
2023/03/22 07:08:03;;;;;;;0.10;0.10;;;8.50;99.90;;;;;;5014937;28;20220;-82
2023/03/22 07:10:29;;;;;;;0.10;0.10;;;8.40;99.90;;;;;;5034624;28;20186;-83
2023/03/22 07:12:55;;;;;;;0.10;0.10;;;8.30;99.90;;;;;;5016845;28;20644;-83
2023/03/22 07:15:23;;;;;;;0.10;0.10;;;8.50;99.90;;;;;;5030166;28;20206;-83
2023/03/22 07:17:50;;;;;;;0.10;0.10;;;8.70;99.90;;;;;;5016429;28;20214;-79
2023/03/22 07:20:16;;;;;;;0.10;0.10;;;9.00;99.90;;;;;;5032404;28;20194;-79
2023/03/22 07:22:41;;;;;;;0.10;0.10;;;9.40;99.90;;;;;;5017892;28;20193;-79
2023/03/22 07:25:07;;;;;;;0.10;0.10;;;9.90;99.90;;;;;;5039351;28;20189;-78
2023/03/22 07:27:33;;;;;;;0.10;0.10;;;9.60;99.90;;;;;;5019560;28;20197;-79
2023/03/22 07:29:59;;;;;;;0.10;0.10;;;10.10;99.90;;;;;;5019413;28;20268;-78
2023/03/22 07:32:24;;;;;;;0.10;0.10;;;9.80;99.90;;;;;;5010797;28;20194;-78
2023/03/22 07:34:50;;;;;;;0.10;0.10;;;9.90;99.90;;;;;;5009663;28;20185;-78
2023/03/22 07:37:15;;;;;;;0.10;0.10;;;10.10;99.90;;;;;;5034379;28;20211;-78
2023/03/22 07:39:41;;;;;;;0.10;0.10;;;10.40;99.90;;;;;;5024892;28;20199;-78
2023/03/22 07:42:06;;;;;;;0.10;0.10;;;10.60;99.90;;;;;;5033371;28;20667;-78
2023/03/22 07:44:32;;;;;;;0.10;0.10;;;10.70;99.90;;;;;;5036289;28;20186;-82
2023/03/22 07:46:58;;;;;;;0.10;0.10;;;11.20;99.90;;;;;;5017905;28;20190;-79
2023/03/22 07:49:23;;;;;;;0.10;0.10;;;11.30;99.90;;;;;;5017974;28;20281;-80
2023/03/22 07:51:49;;;;;;;0.10;0.10;;;11.50;99.90;;;;;;5036433;28;20205;-80
2023/03/22 07:54:14;;;;;;;0.10;0.10;;;11.40;99.90;;;;;;5010667;28;20808;-80
2023/03/22 07:56:41;;;;;;;0.10;0.10;;;11.90;99.90;;;;;;5038461;28;21528;-80
2023/03/22 07:59:06;;;;;;;0.10;0.10;;;12.20;99.90;;;;;;5035493;28;20218;-80
2023/03/22 08:01:32;;;;;;;0.10;0.10;;;12.50;99.90;;;;;;5017467;28;20563;-80
2023/03/22 08:03:58;;;;;;;0.07;0.07;;;12.70;99.90;;;;;;5036197;28;20681;-80
2023/03/22 08:06:23;;;;;;;0.10;0.10;;;13.00;99.90;;;;;;5012883;28;20214;-80
2023/03/22 08:08:49;;;;;;;0.10;0.10;;;13.20;99.90;;;;;;5037281;28;20264;-80
2023/03/22 08:11:15;;;;;;;0.10;0.10;;;13.10;99.90;;;;;;5035912;28;20191;-79
2023/03/22 08:13:40;;;;;;;0.10;0.10;;;13.20;99.90;;;;;;5017407;28;20187;-80
2023/03/22 08:16:06;;;;;;;0.10;0.10;;;13.20;99.90;;;;;;5019659;28;20564;-80
2023/03/22 08:18:32;;;;;;;0.10;0.10;;;13.30;99.90;;;;;;5017866;28;20234;-79
2023/03/22 08:20:59;;;;;;;0.10;0.10;;;13.40;99.90;;;;;;5018004;28;20656;-79
2023/03/22 08:23:26;;;;;;;0.10;0.10;;;13.50;99.90;;;;;;5034264;28;20190;-79
2023/03/22 08:25:52;;;;;;;0.10;0.10;;;13.50;99.90;;;;;;5041865;28;20200;-80
2023/03/22 08:28:18;;;;;;;0.10;0.10;;;13.60;99.90;;;;;;5125775;23;20226;-79
2023/03/22 08:30:46;;;;;;;0.10;0.10;;;13.30;99.90;;;;;;5054954;28;20216;-79
2023/03/22 08:33:12;;;;;;;0.10;0.10;;;13.30;99.90;;;;;;5036279;28;20592;-78
2023/03/22 08:35:39;;;;;;;0.10;0.10;;;13.30;99.90;;;;;;5051069;28;20175;-79
2023/03/22 08:38:05;;;;;;;0.10;0.10;;;13.30;99.90;;;;;;5054170;28;20259;-79
2023/03/22 08:40:31;;;;;;;0.10;0.10;;;13.10;99.90;;;;;;5033721;28;20600;-80
2023/03/22 08:42:57;;;;;;;0.10;0.10;;;13.10;99.90;;;;;;5022880;28;20188;-80
2023/03/22 08:45:22;;;;;;;0.10;0.10;;;13.20;99.90;;;;;;5035234;28;20242;-79
2023/03/22 08:47:48;;;;;;;0.10;0.10;;;13.10;99.90;;;;;;5032112;28;20204;-79
2023/03/22 08:50:14;;;;;;;0.10;0.10;;;13.00;99.90;;;;;;5024935;28;20187;-79
2023/03/22 08:52:39;;;;;;;0.10;0.10;;;12.90;99.90;;;;;;5050174;28;20193;-78
2023/03/22 08:55:07;;;;;;;0.10;0.10;;;12.70;99.90;;;;;;5035216;28;21110;-79
2023/03/22 08:57:33;;;;;;;0.10;0.10;;;12.90;99.90;;;;;;5036967;28;20210;-79
2023/03/22 08:59:59;;;;;;;0.10;0.10;;;12.60;99.90;;;;;;5054678;28;20186;-79
2023/03/22 09:02:24;;;;;;;0.10;0.10;;;12.70;99.90;;;;;;5033586;28;20200;-79
2023/03/22 09:04:50;;;;;;;0.10;0.10;;;12.90;99.90;;;;;;5037389;28;20623;-79
2023/03/22 09:07:23;;;;;;;0.10;0.10;;;13.30;99.90;;;;;;5037314;28;20322;-80
2023/03/22 09:09:49;;;;;;;0.10;0.10;;;13.60;99.90;;;;;;5033814;28;20197;-78
2023/03/22 09:12:15;;;;;;;0.10;0.10;;;13.80;99.90;;;;;;5053036;28;20234;-79
2023/03/22 09:14:41;;;;;;;0.10;0.10;;;14.00;99.90;;;;;;5036002;28;20280;-79
2023/03/22 09:17:07;;;;;;;0.10;0.10;;;14.40;99.90;;;;;;5052451;28;20240;-80
2023/03/22 09:19:32;;;;;;;0.10;0.10;;;14.60;99.90;;;;;;5036545;28;20609;-80
2023/03/22 09:21:58;;;;;;;0.10;0.10;;;14.90;99.90;;;;;;5028561;28;20683;-79
2023/03/22 09:24:24;;;;;;;0.10;0.10;;;14.90;99.90;;;;;;5035213;28;20354;-80
2023/03/22 09:26:50;;;;;;;0.10;0.10;;;15.00;99.90;;;;;;5036544;28;20205;-80
2023/03/22 09:29:15;;;;;;;0.10;0.10;;;15.00;99.90;;;;;;5037975;28;20248;-81
2023/03/22 09:31:42;;;;;;;0.10;0.10;;;15.10;99.90;;;;;;5053696;28;20221;-81
2023/03/22 09:34:07;;;;;;;0.10;0.10;;;15.20;99.90;;;;;;5054049;28;20190;-81
2023/03/22 09:36:33;;;;;;;0.10;0.10;;;15.00;99.90;;;;;;5055115;28;20272;-80
2023/03/22 09:38:58;;;;;;;0.10;0.10;;;15.00;99.90;;;;;;5036540;28;20211;-81
2023/03/22 09:41:40;;;;;;;0.10;0.10;;;15.00;99.90;;;;;;5053985;28;20231;-79
2023/03/22 09:44:11;;;;;;;0.10;0.10;;;15.10;99.90;;;;;;5033121;28;20190;-79
2023/03/22 09:46:43;;;;;;;0.10;0.10;;;15.20;99.90;;;;;;5033010;28;20185;-80
2023/03/22 09:49:18;;;;;;;0.10;0.10;;;15.10;99.90;;;;;;5035200;28;20205;-80
2023/03/22 09:51:45;;;;;;;0.10;0.10;;;15.00;99.90;;;;;;5033683;28;20716;-79
2023/03/22 09:54:27;;;;;;;0.10;0.10;;;15.00;99.90;;;;;;5053610;28;20218;-80
2023/03/22 09:56:58;;;;;;;0.10;0.10;;;15.00;99.90;;;;;;5034950;28;20679;-80
2023/03/22 09:59:34;;;;;;;0.03;0.03;;;14.90;99.90;;;;;;5056338;28;20746;-80
2023/03/22 10:02:03;;;;;;;0.00;0.00;;;15.00;99.90;;;;;;5054215;28;20184;-79
2023/03/22 10:04:46;;;;;;;0.10;0.10;;;15.60;99.90;;;;;;5049214;28;20189;-80
2023/03/22 10:07:26;;;;;;;0.10;0.10;;;15.90;99.90;;;;;;5054309;28;20200;-80
2023/03/22 10:10:00;;;;;;;0.10;0.10;;;16.10;99.90;;;;;;5039067;28;20258;-80
2023/03/22 10:12:31;;;;;;;0.10;0.10;;;16.00;99.90;;;;;;5055837;28;20169;-80
2023/03/22 10:15:02;;;;;;;0.10;0.10;;;16.00;99.90;;;;;;5037670;28;20180;-80
2023/03/22 10:17:29;;;;;;;0.10;0.10;;;16.50;99.90;;;;;;5045688;28;20206;-80
2023/03/22 10:20:39;;;;;;;0.10;0.10;;;16.40;99.90;;;;;;5053974;28;20189;-79
2023/03/22 10:23:10;;;;;;;0.10;0.10;;;16.40;99.90;;;;;;5054991;28;20199;-80
2023/03/22 10:25:38;;;;;;;0.10;0.10;;;16.40;99.90;;;;;;5054714;28;20185;-80
2023/03/22 10:28:18;;;;;;;0.10;0.10;;;16.20;99.90;;;;;;5047380;28;20221;-79
2023/03/22 10:30:52;;;;;;;0.10;0.10;;;16.40;99.90;;;;;;5034394;28;20670;-80
2023/03/22 10:33:24;;;;;;;0.10;0.10;;;16.30;99.90;;;;;;5035574;28;20186;-80
2023/03/22 10:35:51;;;;;;;0.10;0.10;;;16.20;99.90;;;;;;5033679;28;20279;-80
2023/03/22 10:38:26;;;;;;;0.10;0.10;;;15.90;99.90;;;;;;5033873;28;20821;-80
2023/03/22 10:40:55;;;;;;;0.10;0.10;;;16.00;99.90;;;;;;5051168;28;20192;-81
2023/03/22 10:43:35;;;;;;;0.10;0.10;;;15.90;99.90;;;;;;5056092;28;20364;-81
2023/03/22 10:46:05;;;;;;;0.10;0.10;;;15.70;99.90;;;;;;5032923;28;20181;-80
2023/03/22 10:48:38;;;;;;;0.10;0.10;;;15.80;99.90;;;;;;5035147;28;20231;-80
2023/03/22 10:51:05;;;;;;;0.10;0.10;;;15.80;99.90;;;;;;5033705;28;20196;-81
2023/03/22 10:53:36;;;;;;;0.10;0.10;;;15.70;99.90;;;;;;5057381;28;20189;-80
2023/03/22 10:56:02;;;;;;;0.10;0.10;;;15.90;99.90;;;;;;5056873;28;20185;-80
2023/03/22 10:58:30;;;;;;;0.10;0.10;;;16.20;99.90;;;;;;5029142;28;21175;-80
2023/03/22 11:01:02;;;;;;;0.10;0.10;;;16.50;99.90;;;;;;5056073;28;20174;-81
2023/03/22 11:03:34;;;;;;;0.10;0.10;;;17.00;99.90;;;;;;5054848;28;20188;-81
2023/03/22 11:06:04;;;;;;;0.10;0.10;;;16.90;99.90;;;;;;5036384;28;20187;-81
2023/03/22 11:08:38;;;;;;;0.10;0.10;;;16.90;99.90;;;;;;5055297;28;20335;-81
2023/03/22 11:11:06;;;;;;;0.10;0.10;;;16.80;99.90;;;;;;5035618;28;20187;-80
2023/03/22 11:13:34;;;;;;;0.10;0.10;;;17.20;99.90;;;;;;5036142;28;20189;-81
2023/03/22 11:16:01;;;;;;;0.10;0.10;;;17.30;99.90;;;;;;5040767;28;20189;-80
2023/03/22 11:18:35;;;;;;;0.10;0.10;;;17.60;99.90;;;;;;5058695;28;20219;-81
2023/03/22 11:21:06;;;;;;;0.10;0.10;;;17.30;99.90;;;;;;5041950;28;20174;-81
2023/03/22 11:23:34;;;;;;;0.10;0.10;;;17.20;99.90;;;;;;5059728;28;20325;-82
2023/03/22 11:26:10;;;;;;;0.10;0.10;;;17.40;99.90;;;;;;5038308;28;20211;-82
2023/03/22 11:28:44;;;;;;;0.10;0.10;;;17.60;99.90;;;;;;5042780;28;20216;-81
2023/03/22 11:31:15;;;;;;;0.10;0.10;;;17.40;99.90;;;;;;5059098;28;20613;-81
2023/03/22 11:33:59;;;;;;;0.10;0.10;;;17.80;99.90;;;;;;5042989;28;20182;-81
2023/03/22 11:36:25;;;;;;;0.10;0.10;;;17.70;99.90;;;;;;5041735;28;20216;-81
2023/03/22 11:39:06;;;;;;;0.10;0.10;;;17.80;99.90;;;;;;5041458;28;20213;-81
2023/03/22 11:41:35;;;;;;;0.10;0.10;;;17.80;99.90;;;;;;5033492;28;20189;-81
2023/03/22 11:44:05;;;;;;;0.10;0.10;;;18.10;99.90;;;;;;5042098;28;20178;-81
2023/03/22 11:46:32;;;;;;;0.10;0.10;;;18.40;99.90;;;;;;5040526;28;20205;-81
2023/03/22 11:49:04;;;;;;;0.10;0.10;;;18.60;99.90;;;;;;5034926;28;20751;-81
2023/03/22 11:51:33;;;;;;;0.10;0.10;;;18.60;99.90;;;;;;5055253;28;20206;-81
2023/03/22 11:54:27;;;;;;;0.10;0.10;;;18.50;99.90;;;;;;5032790;28;20181;-81
2023/03/22 11:56:57;;;;;;;0.10;0.10;;;18.50;99.90;;;;;;5059329;28;20251;-81
2023/03/22 11:59:27;;;;;;;0.10;0.10;;;18.60;99.90;;;;;;5039600;28;21329;-82
2023/03/22 12:02:11;;;;;;;0.10;0.10;;;18.60;99.90;;;;;;5055495;28;20186;-82
2023/03/22 12:04:38;;;;;;;0.10;0.10;;;18.60;99.90;;;;;;5030079;28;20173;-80
2023/03/22 12:07:13;;;;;;;0.10;0.10;;;18.50;99.90;;;;;;5035438;28;20308;-81
2023/03/22 12:09:56;;;;;;;1.50;1.50;;;18.30;99.90;;;;;;5038883;28;20304;-82
2023/03/22 12:12:27;;;;;;;0.10;0.10;;;18.60;99.90;;;;;;5058258;28;20186;-81
2023/03/22 12:15:02;;;;;;;0.10;0.10;;;18.80;99.90;;;;;;5058768;28;20817;-81
2023/03/22 12:17:53;;;;;;;0.10;0.10;;;19.10;99.90;;;;;;5030971;28;20209;-81
2023/03/22 12:20:32;;;;;;;0.10;0.10;;;18.90;99.90;;;;;;5040243;28;20170;-82
2023/03/22 12:22:59;;;;;;;0.10;0.10;;;18.90;99.90;;;;;;5058936;28;20173;-81
2023/03/22 12:25:32;;;;;;;0.10;0.10;;;18.60;99.90;;;;;;5036456;28;20268;-79
2023/03/22 12:28:08;;;;;;;0.10;0.10;;;18.60;99.90;;;;;;5053763;28;20223;-80
2023/03/22 12:30:45;;;;;;;0.10;0.10;;;18.70;99.90;;;;;;5035831;28;20196;-81
2023/03/22 12:33:34;;;;;;;0.10;0.10;;;18.90;99.90;;;;;;5056433;28;20217;-81
2023/03/22 12:36:02;;;;;;;0.10;0.10;;;19.00;99.90;;;;;;5035945;28;20228;-81
2023/03/22 12:38:38;;;;;;;0.10;0.10;;;18.90;99.90;;;;;;5056368;28;20220;-80
2023/03/22 12:41:13;;;;;;;0.10;0.10;;;18.40;99.90;;;;;;5035084;28;20192;-82
2023/03/22 12:43:54;;;;;;;0.10;0.10;;;18.30;99.90;;;;;;5053064;28;20267;-82
2023/03/22 12:46:25;;;;;;;0.10;0.10;;;18.40;99.90;;;;;;5055114;28;20256;-81
2023/03/22 12:48:59;;;;;;;0.10;0.10;;;18.30;99.90;;;;;;5035499;28;20573;-82
2023/03/22 12:51:25;;;;;;;0.10;0.10;;;18.30;99.90;;;;;;5036393;28;20705;-80
2023/03/22 12:53:55;;;;;;;0.10;0.10;;;18.20;99.90;;;;;;5035803;28;20193;-81
2023/03/22 12:56:25;;;;;;;0.10;0.10;;;18.20;99.90;;;;;;5034806;28;20186;-80
2023/03/22 12:58:57;;;;;;;0.10;0.10;;;18.10;99.90;;;;;;5035220;28;20208;-81
2023/03/22 13:01:45;;;;;;;0.10;0.10;;;18.10;99.90;;;;;;5035748;28;20249;-80
2023/03/22 13:04:50;;;;;;;0.10;0.10;;;18.10;99.90;;;;;;5027654;28;20181;-81
2023/03/22 13:07:35;;;;;;;0.10;0.10;;;18.30;99.90;;;;;;5041975;28;20288;-81